sensor_id;sensor_type;location;lat;lon;timestamp;P1;durP1;ratioP1;P2;durP2;ratioP2
17372;SDS011;8803;48.116;11.590;2024-02-16T00:01:07;3.93;;;3.10;;
17372;SDS011;8803;48.116;11.590;2024-02-16T00:03:20;5.90;;;3.23;;
17372;SDS011;8803;48.116;11.590;2024-02-16T00:05:25;3.77;;;3.23;;
17372;SDS011;8803;48.116;11.590;2024-02-16T00:07:38;4.97;;;3.07;;
17372;SDS011;8803;48.116;11.590;2024-02-16T00:09:43;3.40;;;3.10;;
17372;SDS011;8803;48.116;11.590;2024-02-16T00:11:57;4.00;;;3.60;;
17372;SDS011;8803;48.116;11.590;2024-02-16T00:14:04;4.80;;;3.43;;
17372;SDS011;8803;48.116;11.590;2024-02-16T00:16:17;5.10;;;3.60;;
17372;SDS011;8803;48.116;11.590;2024-02-16T00:18:23;3.87;;;3.10;;
17372;SDS011;8803;48.116;11.590;2024-02-16T00:20:36;4.17;;;3.47;;
17372;SDS011;8803;48.116;11.590;2024-02-16T00:22:40;3.60;;;3.13;;
17372;SDS011;8803;48.116;11.590;2024-02-16T00:24:54;3.63;;;3.10;;
17372;SDS011;8803;48.116;11.590;2024-02-16T00:26:58;3.57;;;3.27;;
17372;SDS011;8803;48.116;11.590;2024-02-16T00:29:13;3.60;;;3.30;;
17372;SDS011;8803;48.116;11.590;2024-02-16T00:31:18;4.73;;;3.70;;
17372;SDS011;8803;48.116;11.590;2024-02-16T00:33:31;4.00;;;3.57;;
17372;SDS011;8803;48.116;11.590;2024-02-16T00:35:36;3.90;;;3.50;;
17372;SDS011;8803;48.116;11.590;2024-02-16T00:37:49;3.43;;;3.13;;
17372;SDS011;8803;48.116;11.590;2024-02-16T00:39:54;4.00;;;3.60;;
17372;SDS011;8803;48.116;11.590;2024-02-16T00:42:07;5.43;;;3.47;;
17372;SDS011;8803;48.116;11.590;2024-02-16T00:44:13;4.37;;;3.97;;
17372;SDS011;8803;48.116;11.590;2024-02-16T00:46:26;4.27;;;3.70;;
17372;SDS011;8803;48.116;11.590;2024-02-16T00:48:33;6.77;;;3.73;;
17372;SDS011;8803;48.116;11.590;2024-02-16T00:50:47;5.97;;;4.03;;
17372;SDS011;8803;48.116;11.590;2024-02-16T00:52:52;4.23;;;3.40;;
17372;SDS011;8803;48.116;11.590;2024-02-16T00:55:06;5.27;;;4.27;;
17372;SDS011;8803;48.116;11.590;2024-02-16T00:57:12;5.57;;;4.23;;
17372;SDS011;8803;48.116;11.590;2024-02-16T00:59:26;5.03;;;4.00;;
17372;SDS011;8803;48.116;11.590;2024-02-16T01:03:43;5.37;;;3.90;;
17372;SDS011;8803;48.116;11.590;2024-02-16T01:05:49;4.87;;;4.27;;
17372;SDS011;8803;48.116;11.590;2024-02-16T01:08:04;4.60;;;3.90;;
17372;SDS011;8803;48.116;11.590;2024-02-16T01:10:10;4.70;;;4.10;;
17372;SDS011;8803;48.116;11.590;2024-02-16T01:12:23;5.90;;;3.97;;
17372;SDS011;8803;48.116;11.590;2024-02-16T01:14:28;5.03;;;4.20;;
17372;SDS011;8803;48.116;11.590;2024-02-16T01:16:42;6.40;;;4.40;;
17372;SDS011;8803;48.116;11.590;2024-02-16T01:21:00;4.40;;;4.00;;
17372;SDS011;8803;48.116;11.590;2024-02-16T01:23:05;5.87;;;4.30;;
17372;SDS011;8803;48.116;11.590;2024-02-16T01:25:19;4.73;;;4.20;;
17372;SDS011;8803;48.116;11.590;2024-02-16T01:27:24;5.00;;;4.40;;
17372;SDS011;8803;48.116;11.590;2024-02-16T01:29:37;5.33;;;4.23;;
17372;SDS011;8803;48.116;11.590;2024-02-16T01:31:41;7.60;;;4.90;;
17372;SDS011;8803;48.116;11.590;2024-02-16T01:33:54;6.60;;;4.73;;
17372;SDS011;8803;48.116;11.590;2024-02-16T01:35:59;5.57;;;4.20;;
17372;SDS011;8803;48.116;11.590;2024-02-16T01:38:12;6.40;;;4.40;;
17372;SDS011;8803;48.116;11.590;2024-02-16T01:40:19;5.07;;;4.40;;
17372;SDS011;8803;48.116;11.590;2024-02-16T01:42:33;5.20;;;4.03;;
17372;SDS011;8803;48.116;11.590;2024-02-16T01:44:38;4.83;;;4.20;;
17372;SDS011;8803;48.116;11.590;2024-02-16T01:46:51;5.27;;;4.27;;
17372;SDS011;8803;48.116;11.590;2024-02-16T01:48:56;4.40;;;4.00;;
17372;SDS011;8803;48.116;11.590;2024-02-16T01:51:01;5.50;;;4.43;;
17372;SDS011;8803;48.116;11.590;2024-02-16T01:53:14;6.77;;;4.77;;
17372;SDS011;8803;48.116;11.590;2024-02-16T01:55:23;6.63;;;5.30;;
17372;SDS011;8803;48.116;11.590;2024-02-16T01:57:36;7.93;;;5.33;;
17372;SDS011;8803;48.116;11.590;2024-02-16T01:59:41;7.00;;;5.07;;
17372;SDS011;8803;48.116;11.590;2024-02-16T02:01:55;7.67;;;4.77;;
17372;SDS011;8803;48.116;11.590;2024-02-16T02:04:00;6.27;;;4.90;;
17372;SDS011;8803;48.116;11.590;2024-02-16T02:06:07;6.83;;;4.70;;
17372;SDS011;8803;48.116;11.590;2024-02-16T02:08:20;5.03;;;4.53;;
17372;SDS011;8803;48.116;11.590;2024-02-16T02:12:38;5.63;;;4.23;;
17372;SDS011;8803;48.116;11.590;2024-02-16T02:14:46;5.87;;;4.30;;
17372;SDS011;8803;48.116;11.590;2024-02-16T02:17:01;5.53;;;4.80;;
17372;SDS011;8803;48.116;11.590;2024-02-16T02:19:09;4.63;;;3.90;;
17372;SDS011;8803;48.116;11.590;2024-02-16T02:21:23;5.57;;;4.30;;
17372;SDS011;8803;48.116;11.590;2024-02-16T02:23:32;4.20;;;3.80;;
17372;SDS011;8803;48.116;11.590;2024-02-16T02:25:46;4.27;;;3.63;;
17372;SDS011;8803;48.116;11.590;2024-02-16T02:30:17;6.27;;;4.23;;
17372;SDS011;8803;48.116;11.590;2024-02-16T02:32:22;5.03;;;4.00;;
17372;SDS011;8803;48.116;11.590;2024-02-16T02:34:29;4.77;;;3.97;;
17372;SDS011;8803;48.116;11.590;2024-02-16T02:36:42;5.07;;;3.93;;
17372;SDS011;8803;48.116;11.590;2024-02-16T02:38:48;4.30;;;3.43;;
17372;SDS011;8803;48.116;11.590;2024-02-16T02:41:01;4.17;;;3.70;;
17372;SDS011;8803;48.116;11.590;2024-02-16T02:43:06;4.67;;;3.70;;
17372;SDS011;8803;48.116;11.590;2024-02-16T02:45:19;4.00;;;3.43;;
17372;SDS011;8803;48.116;11.590;2024-02-16T02:47:25;3.93;;;3.50;;
17372;SDS011;8803;48.116;11.590;2024-02-16T02:49:38;4.00;;;3.33;;
17372;SDS011;8803;48.116;11.590;2024-02-16T02:51:42;3.67;;;3.17;;
17372;SDS011;8803;48.116;11.590;2024-02-16T02:53:55;3.87;;;3.30;;
17372;SDS011;8803;48.116;11.590;2024-02-16T02:56:00;5.57;;;3.60;;
17372;SDS011;8803;48.116;11.590;2024-02-16T02:58:13;3.57;;;3.27;;
17372;SDS011;8803;48.116;11.590;2024-02-16T03:02:31;4.53;;;3.50;;
17372;SDS011;8803;48.116;11.590;2024-02-16T03:04:36;4.20;;;3.33;;
17372;SDS011;8803;48.116;11.590;2024-02-16T03:06:51;3.97;;;3.57;;
17372;SDS011;8803;48.116;11.590;2024-02-16T03:08:57;4.13;;;3.40;;
17372;SDS011;8803;48.116;11.590;2024-02-16T03:11:10;5.03;;;3.83;;
17372;SDS011;8803;48.116;11.590;2024-02-16T03:13:16;6.33;;;3.57;;
17372;SDS011;8803;48.116;11.590;2024-02-16T03:15:29;4.07;;;3.33;;
17372;SDS011;8803;48.116;11.590;2024-02-16T03:17:36;4.10;;;3.70;;
17372;SDS011;8803;48.116;11.590;2024-02-16T03:19:49;3.53;;;3.23;;
17372;SDS011;8803;48.116;11.590;2024-02-16T03:21:57;4.97;;;3.33;;
17372;SDS011;8803;48.116;11.590;2024-02-16T03:24:02;4.30;;;3.47;;
17372;SDS011;8803;48.116;11.590;2024-02-16T03:26:18;5.93;;;3.60;;
17372;SDS011;8803;48.116;11.590;2024-02-16T03:28:23;3.93;;;3.53;;
17372;SDS011;8803;48.116;11.590;2024-02-16T03:30:36;4.13;;;3.67;;
17372;SDS011;8803;48.116;11.590;2024-02-16T03:32:40;4.57;;;3.90;;
17372;SDS011;8803;48.116;11.590;2024-02-16T03:34:54;4.53;;;3.63;;
17372;SDS011;8803;48.116;11.590;2024-02-16T03:37:00;4.17;;;3.70;;
17372;SDS011;8803;48.116;11.590;2024-02-16T03:39:13;4.10;;;3.37;;
17372;SDS011;8803;48.116;11.590;2024-02-16T03:41:20;3.43;;;3.00;;
17372;SDS011;8803;48.116;11.590;2024-02-16T03:43:25;5.37;;;3.47;;
17372;SDS011;8803;48.116;11.590;2024-02-16T03:45:39;3.77;;;3.17;;
17372;SDS011;8803;48.116;11.590;2024-02-16T03:47:43;3.77;;;3.20;;
17372;SDS011;8803;48.116;11.590;2024-02-16T03:49:56;4.57;;;3.40;;
17372;SDS011;8803;48.116;11.590;2024-02-16T03:52:01;3.97;;;3.30;;
17372;SDS011;8803;48.116;11.590;2024-02-16T03:54:15;4.20;;;3.17;;
17372;SDS011;8803;48.116;11.590;2024-02-16T03:56:22;4.37;;;3.20;;
17372;SDS011;8803;48.116;11.590;2024-02-16T03:58:36;5.17;;;3.40;;
17372;SDS011;8803;48.116;11.590;2024-02-16T04:00:41;4.47;;;3.47;;
17372;SDS011;8803;48.116;11.590;2024-02-16T04:02:54;4.10;;;2.90;;
17372;SDS011;8803;48.116;11.590;2024-02-16T04:04:59;3.70;;;3.30;;
17372;SDS011;8803;48.116;11.590;2024-02-16T04:07:12;3.70;;;3.30;;
17372;SDS011;8803;48.116;11.590;2024-02-16T04:09:16;4.23;;;3.60;;
17372;SDS011;8803;48.116;11.590;2024-02-16T04:11:30;5.80;;;3.70;;
17372;SDS011;8803;48.116;11.590;2024-02-16T04:13:37;4.47;;;3.53;;
17372;SDS011;8803;48.116;11.590;2024-02-16T04:15:50;3.37;;;2.63;;
17372;SDS011;8803;48.116;11.590;2024-02-16T04:17:55;4.97;;;3.33;;
17372;SDS011;8803;48.116;11.590;2024-02-16T04:20:11;3.93;;;2.83;;
17372;SDS011;8803;48.116;11.590;2024-02-16T04:22:17;3.60;;;2.67;;
17372;SDS011;8803;48.116;11.590;2024-02-16T04:24:30;3.80;;;2.73;;
17372;SDS011;8803;48.116;11.590;2024-02-16T04:26:34;6.00;;;2.97;;
17372;SDS011;8803;48.116;11.590;2024-02-16T04:28:47;4.63;;;3.57;;
17372;SDS011;8803;48.116;11.590;2024-02-16T04:30:52;3.23;;;2.73;;
17372;SDS011;8803;48.116;11.590;2024-02-16T04:33:05;3.00;;;2.70;;
17372;SDS011;8803;48.116;11.590;2024-02-16T04:35:10;3.50;;;2.80;;
17372;SDS011;8803;48.116;11.590;2024-02-16T04:37:23;3.87;;;3.07;;
17372;SDS011;8803;48.116;11.590;2024-02-16T04:39:28;3.77;;;2.70;;
17372;SDS011;8803;48.116;11.590;2024-02-16T04:41:41;3.00;;;2.70;;
17372;SDS011;8803;48.116;11.590;2024-02-16T04:43:46;3.10;;;2.53;;
17372;SDS011;8803;48.116;11.590;2024-02-16T04:45:59;3.00;;;2.47;;
17372;SDS011;8803;48.116;11.590;2024-02-16T04:48:08;3.30;;;2.40;;
17372;SDS011;8803;48.116;11.590;2024-02-16T04:50:21;3.43;;;2.40;;
17372;SDS011;8803;48.116;11.590;2024-02-16T04:52:26;3.87;;;2.60;;
17372;SDS011;8803;48.116;11.590;2024-02-16T04:54:39;2.80;;;2.50;;
17372;SDS011;8803;48.116;11.590;2024-02-16T04:56:44;4.43;;;2.40;;
17372;SDS011;8803;48.116;11.590;2024-02-16T04:58:57;3.63;;;2.47;;
17372;SDS011;8803;48.116;11.590;2024-02-16T05:01:02;2.83;;;2.37;;
17372;SDS011;8803;48.116;11.590;2024-02-16T05:03:16;3.03;;;2.50;;
17372;SDS011;8803;48.116;11.590;2024-02-16T05:05:20;2.50;;;2.30;;
17372;SDS011;8803;48.116;11.590;2024-02-16T05:07:33;2.60;;;2.23;;
17372;SDS011;8803;48.116;11.590;2024-02-16T05:09:38;2.57;;;2.17;;
17372;SDS011;8803;48.116;11.590;2024-02-16T05:11:51;3.43;;;2.40;;
17372;SDS011;8803;48.116;11.590;2024-02-16T05:13:57;2.47;;;2.07;;
17372;SDS011;8803;48.116;11.590;2024-02-16T05:16:10;3.37;;;2.53;;
17372;SDS011;8803;48.116;11.590;2024-02-16T05:18:17;2.40;;;2.13;;
17372;SDS011;8803;48.116;11.590;2024-02-16T05:20:30;3.40;;;2.67;;
17372;SDS011;8803;48.116;11.590;2024-02-16T05:24:46;3.20;;;2.17;;
17372;SDS011;8803;48.116;11.590;2024-02-16T05:26:50;3.10;;;2.43;;
17372;SDS011;8803;48.116;11.590;2024-02-16T05:29:04;2.90;;;2.03;;
17372;SDS011;8803;48.116;11.590;2024-02-16T05:33:25;2.43;;;2.23;;
17372;SDS011;8803;48.116;11.590;2024-02-16T05:35:29;2.77;;;2.23;;
17372;SDS011;8803;48.116;11.590;2024-02-16T05:37:43;2.97;;;2.40;;
17372;SDS011;8803;48.116;11.590;2024-02-16T05:39:53;3.73;;;2.57;;
17372;SDS011;8803;48.116;11.590;2024-02-16T05:42:07;3.53;;;2.20;;
17372;SDS011;8803;48.116;11.590;2024-02-16T05:44:12;4.53;;;2.40;;
17372;SDS011;8803;48.116;11.590;2024-02-16T05:46:25;3.10;;;2.30;;
17372;SDS011;8803;48.116;11.590;2024-02-16T05:48:30;3.10;;;2.50;;
17372;SDS011;8803;48.116;11.590;2024-02-16T05:50:43;4.47;;;3.50;;
17372;SDS011;8803;48.116;11.590;2024-02-16T05:52:48;3.03;;;2.73;;
17372;SDS011;8803;48.116;11.590;2024-02-16T05:55:02;2.37;;;2.17;;
17372;SDS011;8803;48.116;11.590;2024-02-16T05:57:15;2.90;;;2.57;;
17372;SDS011;8803;48.116;11.590;2024-02-16T05:59:28;2.90;;;2.20;;
17372;SDS011;8803;48.116;11.590;2024-02-16T06:01:34;2.47;;;2.27;;
17372;SDS011;8803;48.116;11.590;2024-02-16T06:03:47;3.40;;;2.40;;
17372;SDS011;8803;48.116;11.590;2024-02-16T06:05:53;3.57;;;2.80;;
17372;SDS011;8803;48.116;11.590;2024-02-16T06:08:13;3.50;;;2.83;;
17372;SDS011;8803;48.116;11.590;2024-02-16T06:10:19;3.43;;;3.00;;
17372;SDS011;8803;48.116;11.590;2024-02-16T06:12:32;2.60;;;2.40;;
17372;SDS011;8803;48.116;11.590;2024-02-16T06:14:38;3.47;;;2.20;;
17372;SDS011;8803;48.116;11.590;2024-02-16T06:16:51;3.63;;;2.33;;
17372;SDS011;8803;48.116;11.590;2024-02-16T06:18:56;3.23;;;2.33;;
17372;SDS011;8803;48.116;11.590;2024-02-16T06:21:09;4.60;;;2.40;;
17372;SDS011;8803;48.116;11.590;2024-02-16T06:23:17;3.87;;;2.57;;
17372;SDS011;8803;48.116;11.590;2024-02-16T06:25:29;4.53;;;2.43;;
17372;SDS011;8803;48.116;11.590;2024-02-16T06:27:34;2.90;;;2.40;;
17372;SDS011;8803;48.116;11.590;2024-02-16T06:29:47;2.50;;;2.27;;
17372;SDS011;8803;48.116;11.590;2024-02-16T06:31:54;2.93;;;2.40;;
17372;SDS011;8803;48.116;11.590;2024-02-16T06:33:59;2.43;;;2.20;;
17372;SDS011;8803;48.116;11.590;2024-02-16T06:36:11;3.63;;;2.50;;
17372;SDS011;8803;48.116;11.590;2024-02-16T06:38:16;2.60;;;2.30;;
17372;SDS011;8803;48.116;11.590;2024-02-16T06:40:29;3.23;;;2.57;;
17372;SDS011;8803;48.116;11.590;2024-02-16T06:42:36;4.07;;;2.50;;
17372;SDS011;8803;48.116;11.590;2024-02-16T06:44:49;3.57;;;2.40;;
17372;SDS011;8803;48.116;11.590;2024-02-16T06:49:05;2.70;;;2.33;;
17372;SDS011;8803;48.116;11.590;2024-02-16T06:51:10;2.63;;;2.20;;
17372;SDS011;8803;48.116;11.590;2024-02-16T06:53:23;4.13;;;2.43;;
17372;SDS011;8803;48.116;11.590;2024-02-16T06:55:27;3.87;;;3.13;;
17372;SDS011;8803;48.116;11.590;2024-02-16T06:57:40;4.13;;;3.23;;
17372;SDS011;8803;48.116;11.590;2024-02-16T06:59:47;4.70;;;3.53;;
17372;SDS011;8803;48.116;11.590;2024-02-16T07:02:00;5.40;;;3.83;;
17372;SDS011;8803;48.116;11.590;2024-02-16T07:04:08;5.07;;;3.23;;
17372;SDS011;8803;48.116;11.590;2024-02-16T07:06:22;4.27;;;2.93;;
17372;SDS011;8803;48.116;11.590;2024-02-16T07:08:28;3.10;;;2.63;;
17372;SDS011;8803;48.116;11.590;2024-02-16T07:10:41;2.60;;;2.37;;
17372;SDS011;8803;48.116;11.590;2024-02-16T07:14:57;5.17;;;2.77;;
17372;SDS011;8803;48.116;11.590;2024-02-16T07:17:06;4.87;;;3.00;;
17372;SDS011;8803;48.116;11.590;2024-02-16T07:19:19;3.67;;;2.43;;
17372;SDS011;8803;48.116;11.590;2024-02-16T07:21:23;4.77;;;2.70;;
17372;SDS011;8803;48.116;11.590;2024-02-16T07:23:36;6.57;;;2.70;;
17372;SDS011;8803;48.116;11.590;2024-02-16T07:25:41;3.40;;;2.70;;
17372;SDS011;8803;48.116;11.590;2024-02-16T07:27:55;4.07;;;2.90;;
17372;SDS011;8803;48.116;11.590;2024-02-16T07:30:00;4.37;;;2.63;;
17372;SDS011;8803;48.116;11.590;2024-02-16T07:32:13;4.83;;;2.83;;
17372;SDS011;8803;48.116;11.590;2024-02-16T07:36:30;5.40;;;2.93;;
17372;SDS011;8803;48.116;11.590;2024-02-16T07:38:38;4.03;;;2.53;;
17372;SDS011;8803;48.116;11.590;2024-02-16T07:40:51;5.73;;;2.90;;
17372;SDS011;8803;48.116;11.590;2024-02-16T07:42:57;2.67;;;2.43;;
17372;SDS011;8803;48.116;11.590;2024-02-16T07:45:03;6.63;;;3.03;;
17372;SDS011;8803;48.116;11.590;2024-02-16T07:47:19;5.17;;;2.90;;
17372;SDS011;8803;48.116;11.590;2024-02-16T07:49:24;5.97;;;3.20;;
17372;SDS011;8803;48.116;11.590;2024-02-16T07:51:37;5.20;;;3.03;;
17372;SDS011;8803;48.116;11.590;2024-02-16T07:53:42;9.77;;;7.40;;
17372;SDS011;8803;48.116;11.590;2024-02-16T07:55:55;6.70;;;4.73;;
17372;SDS011;8803;48.116;11.590;2024-02-16T07:58:00;5.50;;;4.20;;
17372;SDS011;8803;48.116;11.590;2024-02-16T08:02:27;4.73;;;3.63;;
17372;SDS011;8803;48.116;11.590;2024-02-16T08:04:32;5.63;;;4.03;;
17372;SDS011;8803;48.116;11.590;2024-02-16T08:06:45;5.40;;;3.83;;
17372;SDS011;8803;48.116;11.590;2024-02-16T08:08:49;4.47;;;3.70;;
17372;SDS011;8803;48.116;11.590;2024-02-16T08:11:05;4.60;;;3.23;;
17372;SDS011;8803;48.116;11.590;2024-02-16T08:13:10;4.27;;;3.03;;
17372;SDS011;8803;48.116;11.590;2024-02-16T08:15:23;4.03;;;2.90;;
17372;SDS011;8803;48.116;11.590;2024-02-16T08:19:40;5.17;;;3.50;;
17372;SDS011;8803;48.116;11.590;2024-02-16T08:21:44;14.73;;;11.17;;
17372;SDS011;8803;48.116;11.590;2024-02-16T08:23:58;11.90;;;9.27;;
17372;SDS011;8803;48.116;11.590;2024-02-16T08:26:05;11.73;;;7.47;;
17372;SDS011;8803;48.116;11.590;2024-02-16T08:28:18;7.70;;;5.53;;
17372;SDS011;8803;48.116;11.590;2024-02-16T08:30:23;7.27;;;5.80;;
17372;SDS011;8803;48.116;11.590;2024-02-16T08:32:36;5.20;;;4.10;;
17372;SDS011;8803;48.116;11.590;2024-02-16T08:34:41;4.47;;;3.00;;
17372;SDS011;8803;48.116;11.590;2024-02-16T08:36:54;4.07;;;2.50;;
17372;SDS011;8803;48.116;11.590;2024-02-16T08:38:59;3.47;;;2.50;;
17372;SDS011;8803;48.116;11.590;2024-02-16T08:41:13;5.63;;;2.53;;
17372;SDS011;8803;48.116;11.590;2024-02-16T08:43:19;5.33;;;2.10;;
17372;SDS011;8803;48.116;11.590;2024-02-16T08:45:24;3.30;;;2.40;;
17372;SDS011;8803;48.116;11.590;2024-02-16T08:47:37;2.30;;;2.10;;
17372;SDS011;8803;48.116;11.590;2024-02-16T08:49:42;2.77;;;2.03;;
17372;SDS011;8803;48.116;11.590;2024-02-16T08:51:55;2.70;;;2.30;;
17372;SDS011;8803;48.116;11.590;2024-02-16T08:54:01;3.63;;;2.40;;
17372;SDS011;8803;48.116;11.590;2024-02-16T08:56:14;2.83;;;2.40;;
17372;SDS011;8803;48.116;11.590;2024-02-16T08:58:19;2.87;;;1.97;;
17372;SDS011;8803;48.116;11.590;2024-02-16T09:00:32;3.47;;;2.30;;
17372;SDS011;8803;48.116;11.590;2024-02-16T09:02:36;3.57;;;2.40;;
17372;SDS011;8803;48.116;11.590;2024-02-16T09:04:50;6.70;;;2.57;;
17372;SDS011;8803;48.116;11.590;2024-02-16T09:06:54;2.87;;;2.17;;
17372;SDS011;8803;48.116;11.590;2024-02-16T09:09:07;3.47;;;2.20;;
17372;SDS011;8803;48.116;11.590;2024-02-16T09:11:16;3.53;;;2.10;;
17372;SDS011;8803;48.116;11.590;2024-02-16T09:13:29;3.47;;;2.10;;
17372;SDS011;8803;48.116;11.590;2024-02-16T09:15:35;3.53;;;2.33;;
17372;SDS011;8803;48.116;11.590;2024-02-16T09:17:40;3.53;;;2.40;;
17372;SDS011;8803;48.116;11.590;2024-02-16T09:19:54;2.37;;;1.83;;
17372;SDS011;8803;48.116;11.590;2024-02-16T09:21:59;2.93;;;2.13;;
17372;SDS011;8803;48.116;11.590;2024-02-16T09:24:13;2.83;;;2.23;;
17372;SDS011;8803;48.116;11.590;2024-02-16T09:26:19;2.53;;;1.90;;
17372;SDS011;8803;48.116;11.590;2024-02-16T09:28:32;2.20;;;1.57;;
17372;SDS011;8803;48.116;11.590;2024-02-16T09:30:39;2.80;;;1.80;;
17372;SDS011;8803;48.116;11.590;2024-02-16T09:32:53;3.47;;;1.70;;
17372;SDS011;8803;48.116;11.590;2024-02-16T09:34:58;2.20;;;2.00;;
17372;SDS011;8803;48.116;11.590;2024-02-16T09:37:11;3.23;;;1.80;;
17372;SDS011;8803;48.116;11.590;2024-02-16T09:39:17;2.40;;;1.70;;
17372;SDS011;8803;48.116;11.590;2024-02-16T09:41:22;2.23;;;1.53;;
17372;SDS011;8803;48.116;11.590;2024-02-16T09:43:35;2.83;;;1.63;;
17372;SDS011;8803;48.116;11.590;2024-02-16T09:45:42;2.40;;;1.40;;
17372;SDS011;8803;48.116;11.590;2024-02-16T09:47:55;2.20;;;1.30;;
17372;SDS011;8803;48.116;11.590;2024-02-16T09:50:03;2.80;;;1.43;;
17372;SDS011;8803;48.116;11.590;2024-02-16T09:52:19;3.17;;;1.40;;
17372;SDS011;8803;48.116;11.590;2024-02-16T09:54:25;2.00;;;1.60;;
17372;SDS011;8803;48.116;11.590;2024-02-16T09:56:38;2.70;;;1.60;;
17372;SDS011;8803;48.116;11.590;2024-02-16T09:58:44;2.77;;;1.60;;
17372;SDS011;8803;48.116;11.590;2024-02-16T10:00:57;3.53;;;2.70;;
17372;SDS011;8803;48.116;11.590;2024-02-16T10:03:04;4.17;;;2.47;;
17372;SDS011;8803;48.116;11.590;2024-02-16T10:05:19;4.00;;;2.33;;
17372;SDS011;8803;48.116;11.590;2024-02-16T10:09:43;1.87;;;1.67;;
17372;SDS011;8803;48.116;11.590;2024-02-16T10:11:48;2.10;;;1.57;;
17372;SDS011;8803;48.116;11.590;2024-02-16T10:14:01;3.87;;;1.63;;
17372;SDS011;8803;48.116;11.590;2024-02-16T10:16:07;1.80;;;1.33;;
17372;SDS011;8803;48.116;11.590;2024-02-16T10:18:21;2.20;;;1.67;;
17372;SDS011;8803;48.116;11.590;2024-02-16T10:20:29;5.90;;;1.60;;
17372;SDS011;8803;48.116;11.590;2024-02-16T10:22:43;3.80;;;1.93;;
17372;SDS011;8803;48.116;11.590;2024-02-16T10:24:48;3.47;;;1.80;;
17372;SDS011;8803;48.116;11.590;2024-02-16T10:27:03;2.10;;;1.40;;
17372;SDS011;8803;48.116;11.590;2024-02-16T10:31:21;2.30;;;1.37;;
17372;SDS011;8803;48.116;11.590;2024-02-16T10:35:45;1.90;;;1.00;;
17372;SDS011;8803;48.116;11.590;2024-02-16T10:37:52;1.53;;;1.23;;
17372;SDS011;8803;48.116;11.590;2024-02-16T10:40:09;2.80;;;1.23;;
17372;SDS011;8803;48.116;11.590;2024-02-16T10:42:18;1.57;;;1.47;;
17372;SDS011;8803;48.116;11.590;2024-02-16T10:44:32;1.37;;;1.23;;
17372;SDS011;8803;48.116;11.590;2024-02-16T10:46:39;1.97;;;1.40;;
17372;SDS011;8803;48.116;11.590;2024-02-16T10:48:52;2.00;;;1.17;;
17372;SDS011;8803;48.116;11.590;2024-02-16T10:50:57;1.30;;;1.00;;
17372;SDS011;8803;48.116;11.590;2024-02-16T10:53:12;2.23;;;1.30;;
17372;SDS011;8803;48.116;11.590;2024-02-16T10:55:19;1.60;;;1.13;;
17372;SDS011;8803;48.116;11.590;2024-02-16T10:57:37;1.27;;;1.00;;
17372;SDS011;8803;48.116;11.590;2024-02-16T10:59:43;1.27;;;1.10;;
17372;SDS011;8803;48.116;11.590;2024-02-16T11:02:01;1.30;;;1.20;;
17372;SDS011;8803;48.116;11.590;2024-02-16T11:04:07;3.70;;;1.20;;
17372;SDS011;8803;48.116;11.590;2024-02-16T11:06:21;1.20;;;1.10;;
17372;SDS011;8803;48.116;11.590;2024-02-16T11:08:25;1.53;;;1.10;;
17372;SDS011;8803;48.116;11.590;2024-02-16T11:10:38;2.13;;;1.33;;
17372;SDS011;8803;48.116;11.590;2024-02-16T11:14:57;1.50;;;1.10;;
17372;SDS011;8803;48.116;11.590;2024-02-16T11:17:02;2.47;;;1.23;;
17372;SDS011;8803;48.116;11.590;2024-02-16T11:19:19;3.27;;;1.87;;
17372;SDS011;8803;48.116;11.590;2024-02-16T11:21:26;1.37;;;1.20;;
17372;SDS011;8803;48.116;11.590;2024-02-16T11:23:39;2.27;;;1.57;;
17372;SDS011;8803;48.116;11.590;2024-02-16T11:25:50;2.13;;;1.83;;
17372;SDS011;8803;48.116;11.590;2024-02-16T11:28:23;1.60;;;1.50;;
17372;SDS011;8803;48.116;11.590;2024-02-16T11:30:29;3.70;;;1.40;;
17372;SDS011;8803;48.116;11.590;2024-02-16T11:32:46;1.90;;;1.40;;
17372;SDS011;8803;48.116;11.590;2024-02-16T11:34:51;1.93;;;1.10;;
17372;SDS011;8803;48.116;11.590;2024-02-16T11:37:04;2.13;;;1.03;;
17372;SDS011;8803;48.116;11.590;2024-02-16T11:41:24;1.30;;;1.10;;
17372;SDS011;8803;48.116;11.590;2024-02-16T11:43:29;2.03;;;1.20;;
17372;SDS011;8803;48.116;11.590;2024-02-16T11:45:44;1.83;;;1.20;;
17372;SDS011;8803;48.116;11.590;2024-02-16T11:47:49;2.67;;;1.10;;
17372;SDS011;8803;48.116;11.590;2024-02-16T11:50:03;1.30;;;1.00;;
17372;SDS011;8803;48.116;11.590;2024-02-16T11:52:13;2.60;;;1.27;;
17372;SDS011;8803;48.116;11.590;2024-02-16T11:54:26;2.27;;;1.10;;
17372;SDS011;8803;48.116;11.590;2024-02-16T11:56:33;1.57;;;1.10;;
17372;SDS011;8803;48.116;11.590;2024-02-16T11:58:46;1.30;;;1.20;;
17372;SDS011;8803;48.116;11.590;2024-02-16T12:00:51;2.80;;;1.43;;
17372;SDS011;8803;48.116;11.590;2024-02-16T12:03:05;1.70;;;1.30;;
17372;SDS011;8803;48.116;11.590;2024-02-16T12:05:13;3.10;;;1.43;;
17372;SDS011;8803;48.116;11.590;2024-02-16T12:07:26;1.53;;;1.30;;
17372;SDS011;8803;48.116;11.590;2024-02-16T12:09:31;1.60;;;1.20;;
17372;SDS011;8803;48.116;11.590;2024-02-16T12:11:45;1.20;;;1.10;;
17372;SDS011;8803;48.116;11.590;2024-02-16T12:13:50;1.97;;;1.33;;
17372;SDS011;8803;48.116;11.590;2024-02-16T12:16:05;1.60;;;1.07;;
17372;SDS011;8803;48.116;11.590;2024-02-16T12:20:22;1.50;;;1.10;;
17372;SDS011;8803;48.116;11.590;2024-02-16T12:22:26;1.60;;;1.10;;
17372;SDS011;8803;48.116;11.590;2024-02-16T12:24:39;1.77;;;1.33;;
17372;SDS011;8803;48.116;11.590;2024-02-16T12:26:45;2.13;;;1.37;;
17372;SDS011;8803;48.116;11.590;2024-02-16T12:28:58;1.60;;;1.37;;
17372;SDS011;8803;48.116;11.590;2024-02-16T12:31:04;1.40;;;1.20;;
17372;SDS011;8803;48.116;11.590;2024-02-16T12:33:17;2.77;;;1.50;;
17372;SDS011;8803;48.116;11.590;2024-02-16T12:35:22;2.23;;;1.23;;
17372;SDS011;8803;48.116;11.590;2024-02-16T12:37:35;3.23;;;2.00;;
17372;SDS011;8803;48.116;11.590;2024-02-16T12:39:40;3.50;;;1.70;;
17372;SDS011;8803;48.116;11.590;2024-02-16T12:41:53;2.83;;;1.70;;
17372;SDS011;8803;48.116;11.590;2024-02-16T12:43:58;2.63;;;1.40;;
17372;SDS011;8803;48.116;11.590;2024-02-16T12:46:11;1.93;;;1.27;;
17372;SDS011;8803;48.116;11.590;2024-02-16T12:48:16;2.73;;;1.50;;
17372;SDS011;8803;48.116;11.590;2024-02-16T12:50:30;2.97;;;1.40;;
17372;SDS011;8803;48.116;11.590;2024-02-16T12:52:35;2.03;;;1.53;;
17372;SDS011;8803;48.116;11.590;2024-02-16T12:54:48;2.17;;;1.30;;
17372;SDS011;8803;48.116;11.590;2024-02-16T12:56:54;2.27;;;1.40;;
17372;SDS011;8803;48.116;11.590;2024-02-16T12:59:07;1.73;;;1.53;;
17372;SDS011;8803;48.116;11.590;2024-02-16T13:01:12;1.80;;;1.23;;
17372;SDS011;8803;48.116;11.590;2024-02-16T13:03:25;3.10;;;1.40;;
17372;SDS011;8803;48.116;11.590;2024-02-16T13:05:30;7.03;;;2.73;;
17372;SDS011;8803;48.116;11.590;2024-02-16T13:07:43;4.07;;;3.17;;
17372;SDS011;8803;48.116;11.590;2024-02-16T13:09:48;3.00;;;1.90;;
17372;SDS011;8803;48.116;11.590;2024-02-16T13:12:02;1.20;;;1.10;;
17372;SDS011;8803;48.116;11.590;2024-02-16T13:14:10;2.67;;;1.30;;
17372;SDS011;8803;48.116;11.590;2024-02-16T13:16:24;3.20;;;1.40;;
17372;SDS011;8803;48.116;11.590;2024-02-16T13:18:29;3.40;;;1.23;;
17372;SDS011;8803;48.116;11.590;2024-02-16T13:20:43;1.63;;;1.20;;
17372;SDS011;8803;48.116;11.590;2024-02-16T13:22:48;4.37;;;1.47;;
17372;SDS011;8803;48.116;11.590;2024-02-16T13:25:02;1.60;;;1.23;;
17372;SDS011;8803;48.116;11.590;2024-02-16T13:27:10;2.20;;;1.50;;
17372;SDS011;8803;48.116;11.590;2024-02-16T13:29:23;2.57;;;1.90;;
17372;SDS011;8803;48.116;11.590;2024-02-16T13:31:28;1.20;;;1.00;;
17372;SDS011;8803;48.116;11.590;2024-02-16T13:33:41;2.43;;;1.10;;
17372;SDS011;8803;48.116;11.590;2024-02-16T13:35:46;2.00;;;1.43;;
17372;SDS011;8803;48.116;11.590;2024-02-16T13:37:59;5.87;;;2.40;;
17372;SDS011;8803;48.116;11.590;2024-02-16T13:42:21;2.67;;;1.40;;